sensor_id;sensor_type;location;lat;lon;timestamp;P1;durP1;ratioP1;P2;durP2;ratioP2
5175;SDS011;2607;50.934;6.934;2022-11-20T00:00:57;14.63;;;11.00;;
5175;SDS011;2607;50.934;6.934;2022-11-20T00:03:22;15.10;;;11.30;;
5175;SDS011;2607;50.934;6.934;2022-11-20T00:05:48;11.47;;;9.70;;
5175;SDS011;2607;50.934;6.934;2022-11-20T00:08:13;13.17;;;10.63;;
5175;SDS011;2607;50.934;6.934;2022-11-20T00:10:39;17.73;;;10.23;;
5175;SDS011;2607;50.934;6.934;2022-11-20T00:13:06;13.70;;;11.20;;
5175;SDS011;2607;50.934;6.934;2022-11-20T00:15:32;16.90;;;11.60;;
5175;SDS011;2607;50.934;6.934;2022-11-20T00:17:58;14.00;;;10.70;;
5175;SDS011;2607;50.934;6.934;2022-11-20T00:20:23;13.30;;;10.13;;
5175;SDS011;2607;50.934;6.934;2022-11-20T00:22:49;12.53;;;9.97;;
5175;SDS011;2607;50.934;6.934;2022-11-20T00:25:15;12.80;;;10.47;;
5175;SDS011;2607;50.934;6.934;2022-11-20T00:27:41;14.63;;;10.90;;
5175;SDS011;2607;50.934;6.934;2022-11-20T00:30:07;16.37;;;11.37;;
5175;SDS011;2607;50.934;6.934;2022-11-20T00:32:33;19.27;;;13.77;;
5175;SDS011;2607;50.934;6.934;2022-11-20T00:34:59;19.13;;;12.67;;
5175;SDS011;2607;50.934;6.934;2022-11-20T00:37:24;17.90;;;12.00;;
5175;SDS011;2607;50.934;6.934;2022-11-20T00:39:50;14.10;;;10.87;;
5175;SDS011;2607;50.934;6.934;2022-11-20T00:42:16;11.40;;;9.80;;
5175;SDS011;2607;50.934;6.934;2022-11-20T00:44:41;13.10;;;10.50;;
5175;SDS011;2607;50.934;6.934;2022-11-20T00:47:07;13.90;;;10.80;;
5175;SDS011;2607;50.934;6.934;2022-11-20T00:49:32;17.20;;;11.17;;
5175;SDS011;2607;50.934;6.934;2022-11-20T00:51:58;12.27;;;9.97;;
5175;SDS011;2607;50.934;6.934;2022-11-20T00:54:23;12.10;;;9.93;;
5175;SDS011;2607;50.934;6.934;2022-11-20T00:56:49;13.03;;;10.63;;
5175;SDS011;2607;50.934;6.934;2022-11-20T00:59:14;11.73;;;9.40;;
5175;SDS011;2607;50.934;6.934;2022-11-20T01:01:40;10.90;;;9.17;;
5175;SDS011;2607;50.934;6.934;2022-11-20T01:04:06;11.20;;;9.20;;
5175;SDS011;2607;50.934;6.934;2022-11-20T01:06:35;12.87;;;10.10;;
5175;SDS011;2607;50.934;6.934;2022-11-20T01:09:05;14.53;;;11.00;;
5175;SDS011;2607;50.934;6.934;2022-11-20T01:11:35;11.50;;;9.80;;
5175;SDS011;2607;50.934;6.934;2022-11-20T01:14:03;11.73;;;9.80;;
5175;SDS011;2607;50.934;6.934;2022-11-20T01:16:33;14.67;;;10.47;;
5175;SDS011;2607;50.934;6.934;2022-11-20T01:19:01;15.60;;;10.97;;
5175;SDS011;2607;50.934;6.934;2022-11-20T01:21:29;11.90;;;9.90;;
5175;SDS011;2607;50.934;6.934;2022-11-20T01:23:56;13.70;;;10.90;;
5175;SDS011;2607;50.934;6.934;2022-11-20T01:26:24;14.27;;;11.03;;
5175;SDS011;2607;50.934;6.934;2022-11-20T01:28:51;15.03;;;10.37;;
5175;SDS011;2607;50.934;6.934;2022-11-20T01:31:21;13.50;;;10.87;;
5175;SDS011;2607;50.934;6.934;2022-11-20T01:33:53;12.33;;;10.43;;
5175;SDS011;2607;50.934;6.934;2022-11-20T01:36:21;14.53;;;10.60;;
5175;SDS011;2607;50.934;6.934;2022-11-20T01:38:50;15.00;;;10.97;;
5175;SDS011;2607;50.934;6.934;2022-11-20T01:41:17;13.50;;;10.40;;
5175;SDS011;2607;50.934;6.934;2022-11-20T01:44:01;14.53;;;11.30;;
5175;SDS011;2607;50.934;6.934;2022-11-20T01:46:29;15.60;;;12.67;;
5175;SDS011;2607;50.934;6.934;2022-11-20T01:49:01;14.77;;;11.03;;
5175;SDS011;2607;50.934;6.934;2022-11-20T01:51:38;12.07;;;10.00;;
5175;SDS011;2607;50.934;6.934;2022-11-20T01:54:08;13.00;;;10.40;;
5175;SDS011;2607;50.934;6.934;2022-11-20T01:56:39;19.80;;;13.70;;
5175;SDS011;2607;50.934;6.934;2022-11-20T01:59:09;18.13;;;13.43;;
5175;SDS011;2607;50.934;6.934;2022-11-20T02:01:36;16.27;;;12.27;;
5175;SDS011;2607;50.934;6.934;2022-11-20T02:04:03;13.27;;;10.97;;
5175;SDS011;2607;50.934;6.934;2022-11-20T02:06:30;13.70;;;11.53;;
5175;SDS011;2607;50.934;6.934;2022-11-20T02:09:00;14.80;;;11.13;;
5175;SDS011;2607;50.934;6.934;2022-11-20T02:11:26;14.80;;;10.23;;
5175;SDS011;2607;50.934;6.934;2022-11-20T02:13:51;13.03;;;10.60;;
5175;SDS011;2607;50.934;6.934;2022-11-20T02:16:23;12.40;;;9.87;;
5175;SDS011;2607;50.934;6.934;2022-11-20T02:18:53;12.63;;;10.20;;
5175;SDS011;2607;50.934;6.934;2022-11-20T02:24:00;13.10;;;10.20;;
5175;SDS011;2607;50.934;6.934;2022-11-20T02:26:30;12.60;;;10.70;;
5175;SDS011;2607;50.934;6.934;2022-11-20T02:28:58;15.10;;;10.73;;
5175;SDS011;2607;50.934;6.934;2022-11-20T02:31:25;12.43;;;10.43;;
5175;SDS011;2607;50.934;6.934;2022-11-20T02:33:57;13.73;;;10.30;;
5175;SDS011;2607;50.934;6.934;2022-11-20T02:36:23;15.97;;;10.63;;
5175;SDS011;2607;50.934;6.934;2022-11-20T02:38:51;14.80;;;10.10;;
5175;SDS011;2607;50.934;6.934;2022-11-20T02:41:16;11.90;;;9.10;;
5175;SDS011;2607;50.934;6.934;2022-11-20T02:43:42;15.47;;;12.33;;
5175;SDS011;2607;50.934;6.934;2022-11-20T02:46:08;12.17;;;10.20;;
5175;SDS011;2607;50.934;6.934;2022-11-20T02:48:33;11.17;;;9.80;;
5175;SDS011;2607;50.934;6.934;2022-11-20T02:50:59;11.80;;;9.53;;
5175;SDS011;2607;50.934;6.934;2022-11-20T02:53:25;12.90;;;10.37;;
5175;SDS011;2607;50.934;6.934;2022-11-20T02:55:51;12.03;;;9.97;;
5175;SDS011;2607;50.934;6.934;2022-11-20T02:58:16;11.53;;;9.73;;
5175;SDS011;2607;50.934;6.934;2022-11-20T03:00:42;11.20;;;9.33;;
5175;SDS011;2607;50.934;6.934;2022-11-20T03:03:07;11.80;;;10.27;;
5175;SDS011;2607;50.934;6.934;2022-11-20T03:05:33;12.43;;;10.10;;
5175;SDS011;2607;50.934;6.934;2022-11-20T03:07:58;10.90;;;9.10;;
5175;SDS011;2607;50.934;6.934;2022-11-20T03:10:24;12.10;;;10.00;;
5175;SDS011;2607;50.934;6.934;2022-11-20T03:12:56;14.03;;;12.17;;
5175;SDS011;2607;50.934;6.934;2022-11-20T03:15:22;12.53;;;9.37;;
5175;SDS011;2607;50.934;6.934;2022-11-20T03:17:48;11.73;;;9.67;;
5175;SDS011;2607;50.934;6.934;2022-11-20T03:20:14;13.47;;;10.43;;
5175;SDS011;2607;50.934;6.934;2022-11-20T03:22:39;11.20;;;9.43;;
5175;SDS011;2607;50.934;6.934;2022-11-20T03:25:05;11.50;;;9.03;;
5175;SDS011;2607;50.934;6.934;2022-11-20T03:27:31;13.27;;;9.97;;
5175;SDS011;2607;50.934;6.934;2022-11-20T03:29:58;12.60;;;10.33;;
5175;SDS011;2607;50.934;6.934;2022-11-20T03:32:23;11.90;;;9.17;;
5175;SDS011;2607;50.934;6.934;2022-11-20T03:34:49;13.33;;;10.93;;
5175;SDS011;2607;50.934;6.934;2022-11-20T03:37:14;13.40;;;10.73;;
5175;SDS011;2607;50.934;6.934;2022-11-20T03:39:40;12.47;;;9.93;;
5175;SDS011;2607;50.934;6.934;2022-11-20T03:42:06;16.27;;;10.40;;
5175;SDS011;2607;50.934;6.934;2022-11-20T03:44:51;12.93;;;10.40;;
5175;SDS011;2607;50.934;6.934;2022-11-20T03:47:17;13.17;;;10.63;;
5175;SDS011;2607;50.934;6.934;2022-11-20T03:49:42;12.83;;;10.50;;
5175;SDS011;2607;50.934;6.934;2022-11-20T03:52:08;14.57;;;10.77;;
5175;SDS011;2607;50.934;6.934;2022-11-20T03:54:33;13.40;;;10.83;;
5175;SDS011;2607;50.934;6.934;2022-11-20T03:56:59;12.37;;;10.00;;
5175;SDS011;2607;50.934;6.934;2022-11-20T03:59:24;13.73;;;9.70;;
5175;SDS011;2607;50.934;6.934;2022-11-20T04:01:50;14.37;;;10.60;;
5175;SDS011;2607;50.934;6.934;2022-11-20T04:04:15;15.40;;;11.47;;
5175;SDS011;2607;50.934;6.934;2022-11-20T04:06:41;12.80;;;10.03;;
5175;SDS011;2607;50.934;6.934;2022-11-20T04:09:06;13.00;;;10.90;;
5175;SDS011;2607;50.934;6.934;2022-11-20T04:11:33;16.10;;;10.77;;
5175;SDS011;2607;50.934;6.934;2022-11-20T04:14:00;14.77;;;10.40;;
5175;SDS011;2607;50.934;6.934;2022-11-20T04:16:31;12.83;;;10.87;;
5175;SDS011;2607;50.934;6.934;2022-11-20T04:19:00;14.97;;;11.37;;
5175;SDS011;2607;50.934;6.934;2022-11-20T04:21:27;12.60;;;9.90;;
5175;SDS011;2607;50.934;6.934;2022-11-20T04:23:53;13.73;;;10.70;;
5175;SDS011;2607;50.934;6.934;2022-11-20T04:26:19;14.77;;;11.30;;
5175;SDS011;2607;50.934;6.934;2022-11-20T04:28:46;15.90;;;11.17;;
5175;SDS011;2607;50.934;6.934;2022-11-20T04:31:13;12.97;;;10.40;;
5175;SDS011;2607;50.934;6.934;2022-11-20T04:33:43;13.97;;;10.60;;
5175;SDS011;2607;50.934;6.934;2022-11-20T04:36:13;12.80;;;10.33;;
5175;SDS011;2607;50.934;6.934;2022-11-20T04:38:43;12.57;;;10.30;;
5175;SDS011;2607;50.934;6.934;2022-11-20T04:41:12;16.17;;;11.60;;
5175;SDS011;2607;50.934;6.934;2022-11-20T04:43:41;14.43;;;10.67;;
5175;SDS011;2607;50.934;6.934;2022-11-20T04:46:10;15.57;;;11.57;;
5175;SDS011;2607;50.934;6.934;2022-11-20T04:48:36;14.10;;;11.40;;
5175;SDS011;2607;50.934;6.934;2022-11-20T04:51:04;18.07;;;11.83;;
5175;SDS011;2607;50.934;6.934;2022-11-20T04:53:30;17.13;;;11.60;;
5175;SDS011;2607;50.934;6.934;2022-11-20T04:56:00;13.57;;;10.80;;
5175;SDS011;2607;50.934;6.934;2022-11-20T04:58:26;14.57;;;11.40;;
5175;SDS011;2607;50.934;6.934;2022-11-20T05:00:52;17.83;;;11.73;;
5175;SDS011;2607;50.934;6.934;2022-11-20T05:03:18;17.20;;;11.93;;
5175;SDS011;2607;50.934;6.934;2022-11-20T05:05:43;18.77;;;11.80;;
5175;SDS011;2607;50.934;6.934;2022-11-20T05:08:09;15.43;;;11.60;;
5175;SDS011;2607;50.934;6.934;2022-11-20T05:10:35;18.00;;;13.13;;
5175;SDS011;2607;50.934;6.934;2022-11-20T05:13:00;17.70;;;13.13;;
5175;SDS011;2607;50.934;6.934;2022-11-20T05:15:26;19.70;;;13.63;;
5175;SDS011;2607;50.934;6.934;2022-11-20T05:17:52;20.50;;;14.07;;
5175;SDS011;2607;50.934;6.934;2022-11-20T05:20:18;20.87;;;13.13;;
5175;SDS011;2607;50.934;6.934;2022-11-20T05:22:44;17.40;;;12.40;;
5175;SDS011;2607;50.934;6.934;2022-11-20T05:25:10;18.10;;;12.83;;
5175;SDS011;2607;50.934;6.934;2022-11-20T05:27:36;19.37;;;13.00;;
5175;SDS011;2607;50.934;6.934;2022-11-20T05:30:02;21.47;;;13.70;;
5175;SDS011;2607;50.934;6.934;2022-11-20T05:32:29;19.50;;;13.57;;
5175;SDS011;2607;50.934;6.934;2022-11-20T05:34:54;17.70;;;13.03;;
5175;SDS011;2607;50.934;6.934;2022-11-20T05:37:20;16.87;;;12.90;;
5175;SDS011;2607;50.934;6.934;2022-11-20T05:39:45;17.43;;;12.73;;
5175;SDS011;2607;50.934;6.934;2022-11-20T05:42:11;17.43;;;12.07;;
5175;SDS011;2607;50.934;6.934;2022-11-20T05:44:55;17.50;;;12.87;;
5175;SDS011;2607;50.934;6.934;2022-11-20T05:47:25;17.17;;;12.40;;
5175;SDS011;2607;50.934;6.934;2022-11-20T05:49:52;18.23;;;13.20;;
5175;SDS011;2607;50.934;6.934;2022-11-20T05:52:18;19.27;;;12.77;;
5175;SDS011;2607;50.934;6.934;2022-11-20T05:54:44;18.20;;;11.90;;
5175;SDS011;2607;50.934;6.934;2022-11-20T05:57:10;22.07;;;12.70;;
5175;SDS011;2607;50.934;6.934;2022-11-20T05:59:35;18.43;;;13.60;;
5175;SDS011;2607;50.934;6.934;2022-11-20T06:02:01;15.70;;;12.20;;
5175;SDS011;2607;50.934;6.934;2022-11-20T06:04:26;18.87;;;13.23;;
5175;SDS011;2607;50.934;6.934;2022-11-20T06:06:52;18.50;;;12.90;;
5175;SDS011;2607;50.934;6.934;2022-11-20T06:09:17;17.87;;;13.03;;
5175;SDS011;2607;50.934;6.934;2022-11-20T06:11:43;19.53;;;13.80;;
5175;SDS011;2607;50.934;6.934;2022-11-20T06:14:08;18.10;;;13.53;;
5175;SDS011;2607;50.934;6.934;2022-11-20T06:16:34;20.07;;;14.73;;
5175;SDS011;2607;50.934;6.934;2022-11-20T06:19:00;21.53;;;13.77;;
5175;SDS011;2607;50.934;6.934;2022-11-20T06:21:25;18.20;;;12.70;;
5175;SDS011;2607;50.934;6.934;2022-11-20T06:23:51;19.83;;;13.73;;
5175;SDS011;2607;50.934;6.934;2022-11-20T06:26:21;16.83;;;11.83;;
5175;SDS011;2607;50.934;6.934;2022-11-20T06:28:48;21.00;;;13.63;;
5175;SDS011;2607;50.934;6.934;2022-11-20T06:31:15;19.37;;;13.37;;
5175;SDS011;2607;50.934;6.934;2022-11-20T06:33:42;17.73;;;12.93;;
5175;SDS011;2607;50.934;6.934;2022-11-20T06:36:09;20.70;;;12.40;;
5175;SDS011;2607;50.934;6.934;2022-11-20T06:38:36;18.20;;;13.20;;
5175;SDS011;2607;50.934;6.934;2022-11-20T06:41:02;22.00;;;14.27;;
5175;SDS011;2607;50.934;6.934;2022-11-20T06:43:29;20.70;;;13.50;;
5175;SDS011;2607;50.934;6.934;2022-11-20T06:45:56;19.87;;;13.50;;
5175;SDS011;2607;50.934;6.934;2022-11-20T06:48:23;23.20;;;13.23;;
5175;SDS011;2607;50.934;6.934;2022-11-20T06:50:50;19.77;;;13.63;;
5175;SDS011;2607;50.934;6.934;2022-11-20T06:53:16;18.13;;;12.70;;
5175;SDS011;2607;50.934;6.934;2022-11-20T06:55:42;17.77;;;12.53;;
5175;SDS011;2607;50.934;6.934;2022-11-20T06:58:09;21.37;;;13.00;;
5175;SDS011;2607;50.934;6.934;2022-11-20T07:00:34;19.30;;;13.23;;
5175;SDS011;2607;50.934;6.934;2022-11-20T07:03:06;16.13;;;12.63;;
5175;SDS011;2607;50.934;6.934;2022-11-20T07:05:34;26.87;;;14.90;;
5175;SDS011;2607;50.934;6.934;2022-11-20T07:08:00;18.30;;;13.30;;
5175;SDS011;2607;50.934;6.934;2022-11-20T07:10:26;17.70;;;13.00;;
5175;SDS011;2607;50.934;6.934;2022-11-20T07:12:52;17.93;;;12.10;;
5175;SDS011;2607;50.934;6.934;2022-11-20T07:15:19;17.70;;;12.17;;
5175;SDS011;2607;50.934;6.934;2022-11-20T07:17:46;18.80;;;12.50;;
5175;SDS011;2607;50.934;6.934;2022-11-20T07:20:11;19.47;;;12.87;;
5175;SDS011;2607;50.934;6.934;2022-11-20T07:22:37;23.60;;;12.20;;
5175;SDS011;2607;50.934;6.934;2022-11-20T07:25:03;16.30;;;11.63;;
5175;SDS011;2607;50.934;6.934;2022-11-20T07:27:29;16.37;;;11.47;;
5175;SDS011;2607;50.934;6.934;2022-11-20T07:29:55;15.53;;;11.53;;
5175;SDS011;2607;50.934;6.934;2022-11-20T07:32:20;18.90;;;12.40;;
5175;SDS011;2607;50.934;6.934;2022-11-20T07:34:46;17.70;;;13.00;;
5175;SDS011;2607;50.934;6.934;2022-11-20T07:37:12;18.17;;;12.80;;
5175;SDS011;2607;50.934;6.934;2022-11-20T07:39:38;15.00;;;11.70;;
5175;SDS011;2607;50.934;6.934;2022-11-20T07:42:03;16.17;;;11.33;;
5175;SDS011;2607;50.934;6.934;2022-11-20T07:44:29;17.60;;;12.80;;
5175;SDS011;2607;50.934;6.934;2022-11-20T07:46:54;18.17;;;12.37;;
5175;SDS011;2607;50.934;6.934;2022-11-20T07:49:20;16.50;;;11.50;;
5175;SDS011;2607;50.934;6.934;2022-11-20T07:51:45;19.87;;;12.37;;
5175;SDS011;2607;50.934;6.934;2022-11-20T07:54:11;17.33;;;11.70;;
5175;SDS011;2607;50.934;6.934;2022-11-20T07:56:36;18.97;;;12.20;;
5175;SDS011;2607;50.934;6.934;2022-11-20T07:59:02;14.93;;;11.07;;
5175;SDS011;2607;50.934;6.934;2022-11-20T08:01:28;14.03;;;10.70;;
5175;SDS011;2607;50.934;6.934;2022-11-20T08:03:54;17.50;;;11.83;;
5175;SDS011;2607;50.934;6.934;2022-11-20T08:06:19;17.40;;;12.00;;
5175;SDS011;2607;50.934;6.934;2022-11-20T08:08:45;17.20;;;12.30;;
5175;SDS011;2607;50.934;6.934;2022-11-20T08:11:10;15.40;;;11.47;;
5175;SDS011;2607;50.934;6.934;2022-11-20T08:13:54;19.63;;;12.60;;
5175;SDS011;2607;50.934;6.934;2022-11-20T08:16:41;15.80;;;11.60;;
5175;SDS011;2607;50.934;6.934;2022-11-20T08:19:08;16.37;;;11.33;;
5175;SDS011;2607;50.934;6.934;2022-11-20T08:21:34;16.43;;;12.10;;
5175;SDS011;2607;50.934;6.934;2022-11-20T08:24:00;16.60;;;12.13;;
5175;SDS011;2607;50.934;6.934;2022-11-20T08:26:26;18.20;;;12.20;;
5175;SDS011;2607;50.934;6.934;2022-11-20T08:28:53;20.50;;;14.30;;
5175;SDS011;2607;50.934;6.934;2022-11-20T08:31:22;17.67;;;12.90;;
5175;SDS011;2607;50.934;6.934;2022-11-20T08:33:49;22.73;;;12.13;;
5175;SDS011;2607;50.934;6.934;2022-11-20T08:36:15;17.33;;;12.50;;
5175;SDS011;2607;50.934;6.934;2022-11-20T08:38:41;19.07;;;13.63;;
5175;SDS011;2607;50.934;6.934;2022-11-20T08:41:11;20.57;;;13.70;;
5175;SDS011;2607;50.934;6.934;2022-11-20T08:43:49;16.67;;;12.50;;
5175;SDS011;2607;50.934;6.934;2022-11-20T08:46:15;19.30;;;13.83;;
5175;SDS011;2607;50.934;6.934;2022-11-20T08:48:41;20.10;;;13.47;;
5175;SDS011;2607;50.934;6.934;2022-11-20T08:51:07;18.70;;;13.33;;
5175;SDS011;2607;50.934;6.934;2022-11-20T08:53:33;19.53;;;13.33;;
5175;SDS011;2607;50.934;6.934;2022-11-20T08:55:58;18.87;;;13.10;;
5175;SDS011;2607;50.934;6.934;2022-11-20T08:58:24;19.07;;;13.37;;
5175;SDS011;2607;50.934;6.934;2022-11-20T09:00:50;21.87;;;13.27;;
5175;SDS011;2607;50.934;6.934;2022-11-20T09:03:16;21.27;;;13.37;;
5175;SDS011;2607;50.934;6.934;2022-11-20T09:05:42;17.57;;;12.80;;
5175;SDS011;2607;50.934;6.934;2022-11-20T09:08:07;17.57;;;13.10;;
5175;SDS011;2607;50.934;6.934;2022-11-20T09:10:33;20.50;;;13.47;;
5175;SDS011;2607;50.934;6.934;2022-11-20T09:12:59;19.23;;;13.57;;
5175;SDS011;2607;50.934;6.934;2022-11-20T09:15:25;18.40;;;12.97;;
5175;SDS011;2607;50.934;6.934;2022-11-20T09:17:54;18.47;;;13.50;;
5175;SDS011;2607;50.934;6.934;2022-11-20T09:20:21;18.17;;;12.97;;
5175;SDS011;2607;50.934;6.934;2022-11-20T09:22:47;17.13;;;12.90;;
5175;SDS011;2607;50.934;6.934;2022-11-20T09:25:13;17.73;;;12.97;;
5175;SDS011;2607;50.934;6.934;2022-11-20T09:27:38;22.40;;;12.40;;
5175;SDS011;2607;50.934;6.934;2022-11-20T09:30:06;18.63;;;12.40;;
5175;SDS011;2607;50.934;6.934;2022-11-20T09:32:32;18.70;;;13.20;;
5175;SDS011;2607;50.934;6.934;2022-11-20T09:34:58;19.90;;;13.70;;
5175;SDS011;2607;50.934;6.934;2022-11-20T09:37:23;19.67;;;13.73;;
5175;SDS011;2607;50.934;6.934;2022-11-20T09:39:49;20.30;;;14.30;;
5175;SDS011;2607;50.934;6.934;2022-11-20T09:48:06;19.70;;;13.60;;
5175;SDS011;2607;50.934;6.934;2022-11-20T09:51:02;17.40;;;12.77;;
5175;SDS011;2607;50.934;6.934;2022-11-20T09:56:03;20.17;;;12.93;;
5175;SDS011;2607;50.934;6.934;2022-11-20T09:58:31;17.60;;;12.90;;
5175;SDS011;2607;50.934;6.934;2022-11-20T10:01:12;19.63;;;13.27;;
5175;SDS011;2607;50.934;6.934;2022-11-20T10:03:51;17.50;;;12.20;;
5175;SDS011;2607;50.934;6.934;2022-11-20T10:06:20;15.57;;;12.10;;
5175;SDS011;2607;50.934;6.934;2022-11-20T10:30:12;24.23;;;15.27;;
5175;SDS011;2607;50.934;6.934;2022-11-20T10:32:40;20.30;;;14.20;;
5175;SDS011;2607;50.934;6.934;2022-11-20T10:35:22;21.23;;;14.70;;
5175;SDS011;2607;50.934;6.934;2022-11-20T10:38:00;21.90;;;14.63;;
5175;SDS011;2607;50.934;6.934;2022-11-20T10:40:46;22.97;;;15.33;;
5175;SDS011;2607;50.934;6.934;2022-11-20T10:44:32;25.03;;;13.47;;
5175;SDS011;2607;50.934;6.934;2022-11-20T10:47:03;25.00;;;15.60;;
5175;SDS011;2607;50.934;6.934;2022-11-20T10:49:30;20.40;;;14.40;;
5175;SDS011;2607;50.934;6.934;2022-11-20T10:52:09;19.17;;;14.20;;
5175;SDS011;2607;50.934;6.934;2022-11-20T10:54:58;22.20;;;15.00;;
5175;SDS011;2607;50.934;6.934;2022-11-20T11:00:13;20.53;;;13.30;;
5175;SDS011;2607;50.934;6.934;2022-11-20T11:07:59;21.47;;;15.20;;
5175;SDS011;2607;50.934;6.934;2022-11-20T11:13:19;21.63;;;13.93;;
5175;SDS011;2607;50.934;6.934;2022-11-20T11:15:52;22.60;;;15.00;;
5175;SDS011;2607;50.934;6.934;2022-11-20T11:18:25;20.20;;;14.20;;
5175;SDS011;2607;50.934;6.934;2022-11-20T11:21:01;21.67;;;15.13;;
5175;SDS011;2607;50.934;6.934;2022-11-20T11:23:46;23.30;;;15.73;;
5175;SDS011;2607;50.934;6.934;2022-11-20T11:26:22;23.27;;;15.90;;
5175;SDS011;2607;50.934;6.934;2022-11-20T11:28:59;19.10;;;13.57;;
5175;SDS011;2607;50.934;6.934;2022-11-20T11:31:26;20.40;;;14.03;;
5175;SDS011;2607;50.934;6.934;2022-11-20T11:34:15;21.70;;;14.47;;
5175;SDS011;2607;50.934;6.934;2022-11-20T11:36:42;18.10;;;13.90;;
5175;SDS011;2607;50.934;6.934;2022-11-20T11:39:20;19.13;;;13.80;;
5175;SDS011;2607;50.934;6.934;2022-11-20T11:41:46;18.27;;;14.00;;
5175;SDS011;2607;50.934;6.934;2022-11-20T11:44:15;19.87;;;14.77;;
5175;SDS011;2607;50.934;6.934;2022-11-20T11:47:04;21.10;;;13.67;;
5175;SDS011;2607;50.934;6.934;2022-11-20T11:49:34;20.73;;;13.73;;
5175;SDS011;2607;50.934;6.934;2022-11-20T11:54:34;20.13;;;13.83;;
5175;SDS011;2607;50.934;6.934;2022-11-20T11:57:10;21.57;;;14.93;;
5175;SDS011;2607;50.934;6.934;2022-11-20T11:59:43;20.67;;;14.93;;
5175;SDS011;2607;50.934;6.934;2022-11-20T12:05:17;23.40;;;14.80;;
5175;SDS011;2607;50.934;6.934;2022-11-20T12:13:15;23.67;;;16.10;;
5175;SDS011;2607;50.934;6.934;2022-11-20T12:15:49;23.80;;;14.37;;
5175;SDS011;2607;50.934;6.934;2022-11-20T12:18:18;22.90;;;15.50;;
5175;SDS011;2607;50.934;6.934;2022-11-20T12:25:56;21.20;;;14.63;;
5175;SDS011;2607;50.934;6.934;2022-11-20T12:28:48;20.47;;;14.10;;
5175;SDS011;2607;50.934;6.934;2022-11-20T12:34:18;21.80;;;14.30;;
5175;SDS011;2607;50.934;6.934;2022-11-20T12:43:23;21.87;;;13.53;;
5175;SDS011;2607;50.934;6.934;2022-11-20T12:51:33;20.67;;;13.90;;
5175;SDS011;2607;50.934;6.934;2022-11-20T13:02:25;20.57;;;14.13;;
5175;SDS011;2607;50.934;6.934;2022-11-20T13:05:03;24.40;;;15.23;;
5175;SDS011;2607;50.934;6.934;2022-11-20T13:07:46;22.53;;;14.03;;
5175;SDS011;2607;50.934;6.934;2022-11-20T13:10:18;20.93;;;14.10;;
5175;SDS011;2607;50.934;6.934;2022-11-20T13:13:14;17.60;;;13.27;;
5175;SDS011;2607;50.934;6.934;2022-11-20T13:15:50;24.20;;;14.53;;
5175;SDS011;2607;50.934;6.934;2022-11-20T13:18:23;21.67;;;14.83;;
5175;SDS011;2607;50.934;6.934;2022-11-20T13:20:49;23.03;;;15.03;;
5175;SDS011;2607;50.934;6.934;2022-11-20T13:23:23;21.33;;;14.50;;
5175;SDS011;2607;50.934;6.934;2022-11-20T13:26:02;18.50;;;13.97;;
5175;SDS011;2607;50.934;6.934;2022-11-20T13:28:29;22.47;;;13.67;;
5175;SDS011;2607;50.934;6.934;2022-11-20T13:30:55;19.90;;;13.60;;
5175;SDS011;2607;50.934;6.934;2022-11-20T13:33:23;25.10;;;16.27;;
5175;SDS011;2607;50.934;6.934;2022-11-20T13:36:19;27.80;;;14.07;;
5175;SDS011;2607;50.934;6.934;2022-11-20T13:38:47;20.37;;;13.00;;
5175;SDS011;2607;50.934;6.934;2022-11-20T13:41:34;19.00;;;13.87;;
5175;SDS011;2607;50.934;6.934;2022-11-20T13:44:09;20.77;;;14.77;;
5175;SDS011;2607;50.934;6.934;2022-11-20T13:46:40;23.40;;;16.23;;
5175;SDS011;2607;50.934;6.934;2022-11-20T13:49:09;19.70;;;12.63;;
5175;SDS011;2607;50.934;6.934;2022-11-20T13:51:46;22.30;;;14.80;;
5175;SDS011;2607;50.934;6.934;2022-11-20T13:54:17;23.53;;;15.20;;
5175;SDS011;2607;50.934;6.934;2022-11-20T13:59:40;23.20;;;14.73;;
5175;SDS011;2607;50.934;6.934;2022-11-20T14:02:11;19.70;;;13.10;;
5175;SDS011;2607;50.934;6.934;2022-11-20T14:04:41;22.10;;;14.40;;
5175;SDS011;2607;50.934;6.934;2022-11-20T14:07:09;24.97;;;16.30;;
5175;SDS011;2607;50.934;6.934;2022-11-20T14:09:35;22.60;;;14.20;;
5175;SDS011;2607;50.934;6.934;2022-11-20T14:12:01;22.03;;;14.27;;
5175;SDS011;2607;50.934;6.934;2022-11-20T14:14:29;25.73;;;14.70;;
5175;SDS011;2607;50.934;6.934;2022-11-20T14:17:08;22.37;;;14.93;;
5175;SDS011;2607;50.934;6.934;2022-11-20T14:19:47;20.57;;;14.50;;
5175;SDS011;2607;50.934;6.934;2022-11-20T14:22:22;20.57;;;14.13;;
5175;SDS011;2607;50.934;6.934;2022-11-20T14:25:00;21.50;;;13.83;;
5175;SDS011;2607;50.934;6.934;2022-11-20T14:27:47;21.07;;;13.90;;
5175;SDS011;2607;50.934;6.934;2022-11-20T14:30:21;20.03;;;14.37;;
5175;SDS011;2607;50.934;6.934;2022-11-20T14:32:49;21.57;;;13.53;;
5175;SDS011;2607;50.934;6.934;2022-11-20T14:37:52;21.73;;;14.17;;
5175;SDS011;2607;50.934;6.934;2022-11-20T14:40:26;22.17;;;14.77;;
5175;SDS011;2607;50.934;6.934;2022-11-20T14:42:56;23.37;;;14.43;;
5175;SDS011;2607;50.934;6.934;2022-11-20T14:45:24;18.77;;;14.03;;
5175;SDS011;2607;50.934;6.934;2022-11-20T14:47:51;19.30;;;13.30;;
5175;SDS011;2607;50.934;6.934;2022-11-20T14:50:27;17.40;;;12.83;;
5175;SDS011;2607;50.934;6.934;2022-11-20T14:52:57;18.80;;;13.60;;
5175;SDS011;2607;50.934;6.934;2022-11-20T14:55:25;21.07;;;14.13;;
5175;SDS011;2607;50.934;6.934;2022-11-20T14:57:55;20.70;;;13.50;;
5175;SDS011;2607;50.934;6.934;2022-11-20T15:00:23;21.13;;;13.47;;
5175;SDS011;2607;50.934;6.934;2022-11-20T15:02:50;26.20;;;13.63;;
5175;SDS011;2607;50.934;6.934;2022-11-20T15:05:18;18.20;;;13.03;;
5175;SDS011;2607;50.934;6.934;2022-11-20T15:07:47;18.40;;;13.33;;
5175;SDS011;2607;50.934;6.934;2022-11-20T15:12:52;20.97;;;13.70;;
5175;SDS011;2607;50.934;6.934;2022-11-20T15:17:54;17.10;;;12.63;;
5175;SDS011;2607;50.934;6.934;2022-11-20T15:20:20;18.00;;;13.03;;
5175;SDS011;2607;50.934;6.934;2022-11-20T15:22:48;19.47;;;14.20;;
5175;SDS011;2607;50.934;6.934;2022-11-20T15:25:14;18.73;;;13.23;;
5175;SDS011;2607;50.934;6.934;2022-11-20T15:27:42;19.33;;;13.27;;
5175;SDS011;2607;50.934;6.934;2022-11-20T15:30:12;21.87;;;14.17;;
5175;SDS011;2607;50.934;6.934;2022-11-20T15:32:39;20.80;;;14.40;;
5175;SDS011;2607;50.934;6.934;2022-11-20T15:35:05;19.60;;;13.00;;
5175;SDS011;2607;50.934;6.934;2022-11-20T15:37:31;20.80;;;14.50;;
5175;SDS011;2607;50.934;6.934;2022-11-20T15:39:57;21.30;;;13.53;;
5175;SDS011;2607;50.934;6.934;2022-11-20T15:42:22;22.93;;;14.00;;
5175;SDS011;2607;50.934;6.934;2022-11-20T15:44:48;19.57;;;13.60;;
5175;SDS011;2607;50.934;6.934;2022-11-20T15:47:13;21.10;;;13.67;;
5175;SDS011;2607;50.934;6.934;2022-11-20T15:49:39;19.00;;;13.90;;
5175;SDS011;2607;50.934;6.934;2022-11-20T15:52:04;21.27;;;13.73;;
5175;SDS011;2607;50.934;6.934;2022-11-20T15:54:30;19.97;;;14.10;;
5175;SDS011;2607;50.934;6.934;2022-11-20T15:56:55;23.40;;;13.97;;
5175;SDS011;2607;50.934;6.934;2022-11-20T15:59:22;21.20;;;12.67;;
5175;SDS011;2607;50.934;6.934;2022-11-20T16:01:47;20.33;;;13.70;;
5175;SDS011;2607;50.934;6.934;2022-11-20T16:04:15;19.30;;;12.27;;
5175;SDS011;2607;50.934;6.934;2022-11-20T16:06:41;19.70;;;13.07;;
5175;SDS011;2607;50.934;6.934;2022-11-20T16:09:07;19.23;;;12.13;;
5175;SDS011;2607;50.934;6.934;2022-11-20T16:11:33;17.50;;;12.20;;
5175;SDS011;2607;50.934;6.934;2022-11-20T16:14:01;19.27;;;13.03;;
5175;SDS011;2607;50.934;6.934;2022-11-20T16:16:48;18.07;;;12.20;;
5175;SDS011;2607;50.934;6.934;2022-11-20T16:19:13;20.60;;;12.97;;
5175;SDS011;2607;50.934;6.934;2022-11-20T16:21:40;18.80;;;12.23;;
5175;SDS011;2607;50.934;6.934;2022-11-20T16:24:07;18.93;;;12.47;;
5175;SDS011;2607;50.934;6.934;2022-11-20T16:26:35;20.50;;;11.60;;
5175;SDS011;2607;50.934;6.934;2022-11-20T16:29:02;15.40;;;10.73;;
5175;SDS011;2607;50.934;6.934;2022-11-20T16:31:29;15.53;;;10.10;;